createdAt,value
2023-03-20T00:01:38.011Z,99735.59
2023-03-20T00:16:39.414Z,99745.28
2023-03-20T00:31:40.877Z,99744.88
2023-03-20T00:46:42.332Z,99739.06
2023-03-20T01:01:43.752Z,99736.41
2023-03-20T01:16:45.170Z,99735.16
2023-03-20T01:31:46.658Z,99744.25
2023-03-20T01:46:48.093Z,99747.34
2023-03-20T02:01:49.507Z,99761.13
2023-03-20T02:16:50.910Z,99779.72
2023-03-20T02:31:52.452Z,99783.22
2023-03-20T02:46:53.867Z,99794.53
2023-03-20T03:01:55.267Z,99817.63
2023-03-20T03:16:56.649Z,99814.75
2023-03-20T03:31:58.098Z,99827.13
2023-03-20T03:46:59.675Z,99827.94
2023-03-20T04:02:01.161Z,99822.59
2023-03-20T04:17:02.606Z,99827.13
2023-03-20T04:32:04.302Z,99826.91
2023-03-20T04:47:05.687Z,99828.78
2023-03-20T05:02:07.169Z,99831.44
2023-03-20T05:17:08.655Z,99818.06
2023-03-20T05:32:10.058Z,99812.28
2023-03-20T05:47:11.414Z,99820.94
2023-03-20T06:02:12.900Z,99800.94
2023-03-20T06:17:14.377Z,99808.16
2023-03-20T06:32:15.846Z,99821.97
2023-03-20T06:47:17.229Z,99826.09
2023-03-20T07:02:18.588Z,99828.56
2023-03-20T07:17:19.983Z,99858.03
2023-03-20T07:32:21.405Z,99857.63
2023-03-20T07:47:22.854Z,99875.97
2023-03-20T08:02:24.221Z,99872.03
2023-03-20T08:17:25.726Z,99876.09
2023-03-20T08:32:27.105Z,99867.88
2023-03-20T08:47:28.487Z,99885.63
2023-03-20T09:02:30.173Z,99893.09
2023-03-20T09:17:31.681Z,99886.06
2023-03-20T09:32:33.105Z,99897.44
2023-03-20T09:47:34.500Z,99903.41
2023-03-20T10:02:36.002Z,99907.75
2023-03-20T10:17:37.377Z,99910.00
2023-03-20T10:32:38.746Z,99915.97
2023-03-20T10:47:40.219Z,99920.31
2023-03-20T11:02:41.663Z,99911.44
2023-03-20T11:17:43.016Z,99912.50
2023-03-20T11:32:44.443Z,99896.59
2023-03-20T11:47:45.846Z,99872.91
2023-03-20T12:02:47.318Z,99853.75
2023-03-20T12:17:48.846Z,99845.69
2023-03-20T12:32:50.243Z,99830.44
2023-03-20T12:47:51.647Z,99813.31
2023-03-20T13:02:53.094Z,99811.47
2023-03-20T13:17:54.594Z,99818.91
2023-03-20T13:32:55.973Z,99800.94
2023-03-20T13:47:57.362Z,99791.84
2023-03-20T14:02:58.853Z,99794.34
2023-03-20T14:18:00.240Z,99772.06
2023-03-20T14:33:01.654Z,99772.69
2023-03-20T14:48:03.240Z,99762.56
2023-03-20T15:03:04.593Z,99759.06
2023-03-20T15:18:06.027Z,99765.63
2023-03-20T15:33:07.549Z,99764.63
2023-03-20T15:48:09.050Z,99761.31
2023-03-20T16:03:10.474Z,99757.19
2023-03-20T16:18:11.925Z,99757.78
2023-03-20T16:33:13.425Z,99756.31
2023-03-20T16:48:14.910Z,99751.59
2023-03-20T17:03:16.257Z,99760.88
2023-03-20T17:18:17.623Z,99766.69
2023-03-20T17:33:22.092Z,99759.66
2023-03-20T17:48:23.540Z,99791.25
2023-03-20T18:03:25.040Z,99793.72
2023-03-20T18:18:26.529Z,99793.09
2023-03-20T18:33:27.944Z,99799.50
2023-03-20T18:48:29.412Z,99775.78
2023-03-20T19:03:30.896Z,99775.16
2023-03-20T19:18:32.362Z,99779.28
2023-03-20T19:33:33.768Z,99776.59
2023-03-20T19:48:50.114Z,99785.88
2023-03-20T20:03:52.531Z,99787.13
2023-03-20T20:18:53.949Z,99787.13
2023-03-20T20:34:26.896Z,99780.94
2023-03-20T20:49:19.755Z,99788.78
2023-03-20T21:04:21.526Z,99792.69
2023-03-20T21:19:22.986Z,99787.75
2023-03-20T21:34:24.430Z,99792.28
2023-03-20T22:20:53.369Z,99805.84
2023-03-20T22:50:51.233Z,99785.63
2023-03-20T23:05:52.678Z,99780.88
2023-03-20T23:20:54.050Z,99773.47
2023-03-20T23:36:01.223Z,99763.13
2023-03-20T23:51:06.536Z,99754.06
